Terminal Aerodrome Forecast
Issued by NWS Mt. Holly, NJ

Home | Current Version | Previous Version | Text Only | Print | Product List | Glossary On
Versions: 1 2 3 4 5 6 7 8 9 10 11 12 13 14 15 16 17 18 19 20 21 22
000
FTUS41 KPHI 272327
TAFTTN
TAF
KTTN 272327Z 2800/2824 13008KT P6SM BKN045
     FM280300 18006KT P6SM OVC010
     FM280700 24006KT P6SM OVC008
      TEMPO 2807/2810 -SHRA
     FM281000 29006KT P6SM BKN015
     FM281300 29008KT P6SM SCT050
     FM282100 25006KT P6SM SCT050=

USA.gov is the U.S. government's official web portal to all federal, state and local government web resources and services.